createdAt,value
2018-07-24T00:00:55.070Z,15.60
2018-07-24T00:03:23.275Z,15.20
2018-07-24T00:05:51.496Z,13.46
2018-07-24T00:08:19.714Z,14.78
2018-07-24T00:10:47.929Z,17.26
2018-07-24T00:13:15.367Z,17.84
2018-07-24T00:15:43.583Z,24.20
2018-07-24T00:18:11.800Z,17.02
2018-07-24T00:20:40.013Z,19.58
2018-07-24T00:23:08.229Z,19.90
2018-07-24T00:25:36.444Z,18.20
2018-07-24T00:28:04.647Z,17.40
2018-07-24T00:30:32.863Z,16.28
2018-07-24T00:33:00.317Z,18.94
2018-07-24T00:35:28.539Z,17.06
2018-07-24T00:37:56.755Z,21.92
2018-07-24T00:40:24.999Z,18.16
2018-07-24T00:42:53.191Z,17.60
2018-07-24T00:45:21.410Z,13.80
2018-07-24T00:47:49.619Z,13.72
2018-07-24T00:50:17.844Z,14.14
2018-07-24T00:52:46.052Z,14.08
2018-07-24T00:55:14.264Z,14.54
2018-07-24T00:57:42.486Z,24.88
2018-07-24T01:00:10.699Z,15.58
2018-07-24T01:02:38.918Z,21.12
2018-07-24T01:05:07.134Z,18.64
2018-07-24T01:07:35.347Z,21.86
2018-07-24T01:10:03.564Z,37.18
2018-07-24T01:12:31.775Z,28.28
2018-07-24T01:15:00.000Z,16.22
2018-07-24T01:17:28.205Z,15.88
2018-07-24T01:19:56.426Z,16.62
2018-07-24T01:22:24.631Z,14.54
2018-07-24T01:24:52.853Z,15.50
2018-07-24T01:27:21.066Z,14.40
2018-07-24T01:29:48.502Z,14.26
2018-07-24T01:32:16.714Z,17.14
2018-07-24T01:34:44.168Z,15.80
2018-07-24T01:37:11.619Z,21.50
2018-07-24T01:39:39.810Z,17.68
2018-07-24T01:42:08.023Z,17.96
2018-07-24T01:44:36.240Z,24.58
2018-07-24T01:47:04.448Z,23.00
2018-07-24T01:49:32.672Z,21.44
2018-07-24T01:52:00.891Z,26.22
2018-07-24T01:54:28.334Z,25.02
2018-07-24T01:56:56.559Z,16.54
2018-07-24T01:59:24.776Z,15.44
2018-07-24T02:01:52.983Z,14.10
2018-07-24T02:04:21.203Z,14.50
2018-07-24T02:06:49.419Z,16.70
2018-07-24T02:09:17.623Z,22.72
2018-07-24T02:11:45.835Z,33.44
2018-07-24T02:14:14.056Z,28.48
2018-07-24T02:16:42.270Z,25.66
2018-07-24T02:19:09.722Z,23.66
2018-07-24T02:21:37.935Z,20.70
2018-07-24T02:24:06.154Z,16.28
2018-07-24T02:26:34.362Z,19.44
2018-07-24T02:29:02.566Z,16.04
2018-07-24T02:31:30.787Z,15.48
2018-07-24T02:33:58.995Z,14.00
2018-07-24T02:36:27.220Z,14.48
2018-07-24T02:38:55.423Z,15.04
2018-07-24T02:41:23.630Z,16.12
2018-07-24T02:43:51.841Z,15.34
2018-07-24T02:46:20.058Z,14.34
2018-07-24T02:48:48.271Z,14.86
2018-07-24T02:51:16.492Z,15.92
2018-07-24T02:53:44.691Z,14.44
2018-07-24T02:56:12.907Z,14.34
2018-07-24T02:58:41.118Z,15.22
2018-07-24T03:01:09.336Z,14.16
2018-07-24T03:03:37.552Z,14.62
2018-07-24T03:06:05.767Z,14.78
2018-07-24T03:08:33.980Z,16.32
2018-07-24T03:11:02.192Z,14.38
2018-07-24T03:13:30.403Z,15.64
2018-07-24T03:15:58.623Z,18.30
2018-07-24T03:18:26.827Z,16.74
2018-07-24T03:20:55.061Z,15.72
2018-07-24T03:23:23.271Z,16.20
2018-07-24T03:25:50.707Z,16.78
2018-07-24T03:28:18.146Z,19.28
2018-07-24T03:30:46.360Z,16.90
2018-07-24T03:33:14.570Z,18.38
2018-07-24T03:35:42.783Z,15.66
2018-07-24T03:38:11.012Z,17.08
2018-07-24T03:40:39.215Z,17.78
2018-07-24T03:43:07.439Z,15.84
2018-07-24T03:45:35.653Z,15.96
2018-07-24T03:48:03.880Z,15.46
2018-07-24T03:50:32.092Z,14.60
2018-07-24T03:53:00.304Z,17.50
2018-07-24T03:55:28.525Z,17.68
2018-07-24T03:57:56.754Z,18.48
2018-07-24T04:00:24.934Z,15.84
2018-07-24T04:02:53.147Z,15.02
2018-07-24T04:05:21.356Z,14.66
2018-07-24T04:07:49.579Z,16.06
2018-07-24T04:10:17.798Z,15.52
2018-07-24T04:12:46.014Z,14.80
2018-07-24T04:15:14.232Z,15.60
2018-07-24T04:17:42.448Z,14.72
2018-07-24T04:20:10.665Z,15.54
2018-07-24T04:22:38.882Z,14.84
2018-07-24T04:25:06.327Z,14.86
2018-07-24T04:27:34.541Z,14.20
2018-07-24T04:30:02.751Z,20.38
2018-07-24T04:32:30.973Z,17.10
2018-07-24T04:34:59.184Z,13.74
2018-07-24T04:37:27.394Z,14.52
2018-07-24T04:39:55.637Z,15.56
2018-07-24T04:42:23.821Z,15.06
2018-07-24T04:44:52.047Z,14.20
2018-07-24T04:47:20.252Z,13.22
2018-07-24T04:49:47.697Z,14.48
2018-07-24T04:52:15.921Z,14.90
2018-07-24T04:54:44.159Z,14.46
2018-07-24T04:57:12.383Z,12.22
2018-07-24T04:59:40.586Z,11.58
2018-07-24T05:02:08.800Z,12.10
2018-07-24T05:04:37.008Z,13.42
2018-07-24T05:07:05.216Z,12.36
2018-07-24T05:09:33.444Z,14.44
2018-07-24T05:12:01.636Z,10.80
2018-07-24T05:14:29.839Z,11.40
2018-07-24T05:16:58.043Z,10.72
2018-07-24T05:19:26.263Z,10.20
2018-07-24T05:21:54.470Z,10.72
2018-07-24T05:24:22.683Z,11.72
2018-07-24T05:26:50.902Z,10.98
2018-07-24T05:29:19.133Z,10.44
2018-07-24T05:31:47.339Z,12.58
2018-07-24T05:34:15.571Z,11.20
2018-07-24T05:36:43.793Z,19.14
2018-07-24T05:39:11.240Z,13.74
2018-07-24T05:41:39.445Z,13.12
2018-07-24T05:44:07.676Z,11.72
2018-07-24T05:46:35.917Z,10.96
2018-07-24T05:49:04.169Z,12.02
2018-07-24T05:51:32.339Z,10.52
2018-07-24T05:54:00.555Z,11.46
2018-07-24T05:56:28.762Z,11.56
2018-07-24T05:58:57.005Z,11.68
2018-07-24T06:01:25.240Z,12.10
2018-07-24T06:03:52.700Z,11.60
2018-07-24T06:06:20.920Z,13.44
2018-07-24T06:08:49.142Z,12.40
2018-07-24T06:11:17.347Z,12.96
2018-07-24T06:13:45.568Z,13.88
2018-07-24T06:16:13.771Z,12.86
2018-07-24T06:18:41.996Z,12.68
2018-07-24T06:21:10.198Z,13.82
2018-07-24T06:23:38.444Z,12.68
2018-07-24T06:26:06.631Z,14.98
2018-07-24T06:28:34.089Z,13.02
2018-07-24T06:31:02.287Z,17.90
2018-07-24T06:33:30.508Z,16.88
2018-07-24T06:35:58.717Z,15.30
2018-07-24T06:38:26.167Z,13.36
2018-07-24T06:40:54.367Z,13.76
2018-07-24T06:43:22.591Z,13.02
2018-07-24T06:45:50.794Z,14.58
2018-07-24T06:48:19.846Z,12.78
2018-07-24T06:50:48.055Z,12.92
2018-07-24T06:53:16.268Z,15.34
2018-07-24T06:55:44.485Z,14.76
2018-07-24T06:58:12.700Z,14.68
2018-07-24T07:00:40.942Z,13.98
2018-07-24T07:03:09.150Z,13.84
2018-07-24T07:05:37.366Z,13.02
2018-07-24T07:08:05.595Z,13.70
2018-07-24T07:10:33.806Z,13.40
2018-07-24T07:13:02.073Z,12.62
2018-07-24T07:15:30.226Z,13.38
2018-07-24T07:17:58.439Z,12.70
2018-07-24T07:20:26.802Z,12.86
2018-07-24T07:22:54.987Z,13.54
2018-07-24T07:25:23.199Z,12.46
2018-07-24T07:27:51.399Z,13.00
2018-07-24T07:30:19.628Z,13.12
2018-07-24T07:32:47.824Z,12.92
2018-07-24T07:35:16.041Z,12.20
2018-07-24T07:37:44.246Z,12.00
2018-07-24T07:40:12.463Z,11.72
2018-07-24T07:42:40.676Z,11.82
2018-07-24T07:45:08.887Z,11.92
2018-07-24T07:47:37.090Z,12.84
2018-07-24T07:50:05.313Z,12.50
2018-07-24T07:52:33.575Z,14.48
2018-07-24T07:55:01.747Z,14.32
2018-07-24T07:57:29.955Z,12.74
2018-07-24T07:59:58.176Z,14.72
2018-07-24T08:02:26.441Z,13.26
2018-07-24T08:04:54.602Z,12.28
2018-07-24T08:07:22.831Z,12.38
2018-07-24T08:09:51.019Z,12.54
2018-07-24T08:12:19.251Z,12.66
2018-07-24T08:14:47.450Z,13.58
2018-07-24T08:17:15.670Z,13.18
2018-07-24T08:19:43.893Z,13.92
2018-07-24T08:22:12.164Z,13.40
2018-07-24T08:24:40.334Z,12.38
2018-07-24T08:27:08.542Z,12.36
2018-07-24T08:29:36.752Z,13.60
2018-07-24T08:32:04.955Z,13.14
2018-07-24T08:34:33.184Z,11.82
2018-07-24T08:37:00.645Z,11.82
2018-07-24T08:39:28.863Z,11.30
2018-07-24T08:41:57.083Z,11.28
2018-07-24T08:44:25.310Z,12.60
2018-07-24T08:46:53.510Z,12.82
2018-07-24T08:49:21.728Z,11.50
2018-07-24T08:51:49.940Z,12.18
2018-07-24T08:54:18.307Z,12.12
2018-07-24T08:56:46.367Z,13.42
2018-07-24T08:59:14.590Z,12.30
2018-07-24T09:01:42.804Z,13.36
2018-07-24T09:04:11.068Z,12.22
2018-07-24T09:06:39.236Z,12.40
2018-07-24T09:09:07.452Z,11.48
2018-07-24T09:11:35.691Z,12.40
2018-07-24T09:14:04.610Z,10.98
2018-07-24T09:16:32.841Z,11.32
2018-07-24T09:19:01.053Z,14.58
2018-07-24T09:21:29.266Z,13.00
2018-07-24T09:23:57.475Z,14.00
2018-07-24T09:26:24.932Z,13.14
2018-07-24T09:28:53.152Z,12.20
2018-07-24T09:31:21.367Z,12.52
2018-07-24T09:33:49.591Z,12.28
2018-07-24T09:36:17.807Z,13.36
2018-07-24T09:38:46.020Z,12.58
2018-07-24T09:41:14.240Z,15.00
2018-07-24T09:43:42.456Z,13.36
2018-07-24T09:46:10.667Z,12.80
2018-07-24T09:48:38.126Z,13.32
2018-07-24T09:51:06.346Z,13.06
2018-07-24T09:53:34.554Z,12.74
2018-07-24T09:56:02.770Z,13.10
2018-07-24T09:58:30.979Z,13.72
2018-07-24T10:00:59.203Z,13.34
2018-07-24T10:03:27.406Z,13.14
2018-07-24T10:05:55.631Z,13.18
2018-07-24T10:08:23.906Z,12.32
2018-07-24T10:10:52.209Z,12.20
2018-07-24T10:13:19.605Z,11.64
2018-07-24T10:15:47.814Z,11.92
2018-07-24T10:18:16.023Z,12.42
2018-07-24T10:20:44.243Z,11.68
2018-07-24T10:23:12.455Z,12.98
2018-07-24T10:25:40.671Z,12.30
2018-07-24T10:28:08.886Z,12.16
2018-07-24T10:30:37.106Z,12.44
2018-07-24T10:33:05.326Z,11.30
2018-07-24T10:35:33.537Z,11.02
2018-07-24T10:38:01.802Z,11.78
2018-07-24T10:40:30.039Z,11.48
2018-07-24T10:42:58.341Z,11.20
2018-07-24T10:45:26.535Z,10.10
2018-07-24T10:47:54.891Z,10.22
2018-07-24T10:50:23.102Z,10.38
2018-07-24T10:52:51.316Z,11.30
2018-07-24T10:55:19.611Z,10.82
2018-07-24T10:57:47.834Z,9.98
2018-07-24T11:00:16.053Z,10.48
2018-07-24T11:02:44.937Z,10.20
2018-07-24T11:05:13.205Z,10.82
2018-07-24T11:07:41.367Z,9.30
2018-07-24T11:10:09.584Z,9.44
2018-07-24T11:12:37.790Z,9.04
2018-07-24T11:15:06.012Z,9.38
2018-07-24T11:17:35.044Z,8.90
2018-07-24T11:20:03.238Z,9.26
2018-07-24T11:22:31.590Z,9.06
2018-07-24T11:24:59.659Z,8.56
2018-07-24T11:27:27.933Z,8.70
2018-07-24T11:29:56.082Z,9.48
2018-07-24T11:32:24.307Z,10.02
2018-07-24T11:34:52.520Z,8.22
2018-07-24T11:37:20.730Z,8.54
2018-07-24T11:39:48.954Z,9.78
2018-07-24T11:42:17.211Z,9.48
2018-07-24T11:44:45.428Z,8.96
2018-07-24T11:47:12.883Z,9.52
2018-07-24T11:49:41.083Z,8.32
2018-07-24T11:52:09.291Z,8.36
2018-07-24T11:54:36.732Z,7.94
2018-07-24T11:57:04.951Z,8.16
2018-07-24T11:59:33.161Z,7.84
2018-07-24T12:02:01.370Z,7.26
2018-07-24T12:04:29.614Z,7.82
2018-07-24T12:06:57.816Z,7.70
2018-07-24T12:09:26.122Z,7.64
2018-07-24T12:11:54.331Z,7.56
2018-07-24T12:14:22.528Z,7.72
2018-07-24T12:16:50.732Z,7.74
2018-07-24T12:19:18.928Z,7.20
2018-07-24T12:21:47.144Z,7.00
2018-07-24T12:24:15.379Z,8.10
2018-07-24T12:26:43.588Z,7.32
2018-07-24T12:29:11.784Z,6.82
2018-07-24T12:31:39.992Z,7.82
2018-07-24T12:34:08.198Z,7.36
2018-07-24T12:36:35.646Z,8.02
2018-07-24T12:39:03.856Z,7.14
2018-07-24T12:41:32.058Z,7.42
2018-07-24T12:44:00.260Z,7.44
2018-07-24T12:46:28.471Z,7.70
2018-07-24T12:48:56.686Z,8.14
2018-07-24T12:51:24.877Z,7.84
2018-07-24T12:53:53.078Z,7.20
2018-07-24T12:56:21.291Z,7.32
2018-07-24T12:58:48.722Z,7.98
2018-07-24T13:01:16.927Z,7.96
2018-07-24T13:03:45.145Z,7.00
2018-07-24T13:06:13.343Z,7.42
2018-07-24T13:08:41.041Z,8.22
2018-07-24T13:11:09.249Z,7.80
2018-07-24T13:13:37.428Z,7.52
2018-07-24T13:16:04.893Z,7.50
2018-07-24T13:18:33.095Z,7.30
2018-07-24T13:21:01.299Z,6.92
2018-07-24T13:23:29.550Z,7.42
2018-07-24T13:25:57.755Z,7.58
2018-07-24T13:28:25.959Z,7.34
2018-07-24T13:30:54.165Z,7.98
2018-07-24T13:33:22.376Z,7.86
2018-07-24T13:35:50.583Z,7.98
2018-07-24T13:38:18.802Z,7.34
2018-07-24T13:40:47.020Z,7.42
2018-07-24T13:43:15.223Z,8.34
2018-07-24T13:45:43.458Z,8.10
2018-07-24T13:48:11.635Z,7.24
2018-07-24T13:50:39.843Z,7.80
2018-07-24T13:53:08.054Z,8.10
2018-07-24T13:55:36.275Z,7.70
2018-07-24T13:58:04.485Z,7.96
2018-07-24T14:00:32.723Z,7.64
2018-07-24T14:03:00.956Z,7.80
2018-07-24T14:05:29.232Z,7.70
2018-07-24T14:07:57.381Z,7.90
2018-07-24T14:10:25.621Z,8.40
2018-07-24T14:12:53.842Z,8.02
2018-07-24T14:15:22.054Z,8.70
2018-07-24T14:17:50.319Z,8.28
2018-07-24T14:20:18.515Z,8.80
2018-07-24T14:22:46.718Z,8.22
2018-07-24T14:25:14.928Z,8.22
2018-07-24T14:27:43.150Z,9.24
2018-07-24T14:30:11.356Z,8.46
2018-07-24T14:32:39.565Z,8.92
2018-07-24T14:35:07.855Z,7.90
2018-07-24T14:37:36.108Z,8.58
2018-07-24T14:40:04.321Z,8.82
2018-07-24T14:42:32.531Z,8.26
2018-07-24T14:45:00.737Z,8.12
2018-07-24T14:47:28.948Z,8.70
2018-07-24T14:49:57.168Z,8.60
2018-07-24T14:52:25.376Z,8.02
2018-07-24T14:54:53.592Z,8.28
2018-07-24T14:57:21.804Z,8.66
2018-07-24T14:59:50.016Z,8.88
2018-07-24T15:02:18.211Z,8.20
2018-07-24T15:04:46.428Z,8.74
2018-07-24T15:07:14.631Z,8.82
2018-07-24T15:09:42.834Z,9.14
2018-07-24T15:12:11.050Z,8.58
2018-07-24T15:14:39.259Z,8.84
2018-07-24T15:17:07.493Z,8.36
2018-07-24T15:19:35.698Z,8.24
2018-07-24T15:22:03.894Z,8.70
2018-07-24T15:24:32.115Z,8.56
2018-07-24T15:27:00.328Z,9.44
2018-07-24T15:29:28.545Z,8.34
2018-07-24T15:31:56.758Z,9.30
2018-07-24T15:34:25.073Z,9.98
2018-07-24T15:36:53.172Z,30.18
2018-07-24T15:39:21.596Z,12.34
2018-07-24T15:41:49.820Z,14.16
2018-07-24T15:44:18.044Z,12.92
2018-07-24T15:46:46.269Z,11.08
2018-07-24T15:49:14.475Z,11.44
2018-07-24T15:51:42.738Z,10.08
2018-07-24T15:54:10.950Z,9.78
2018-07-24T15:56:39.574Z,9.62
2018-07-24T15:59:07.782Z,9.90
2018-07-24T16:01:36.082Z,10.38
2018-07-24T16:04:04.300Z,8.80
2018-07-24T16:06:32.502Z,9.08
2018-07-24T16:09:00.724Z,9.58
2018-07-24T16:11:28.928Z,9.00
2018-07-24T16:13:57.142Z,9.70
2018-07-24T16:16:25.360Z,20.92
2018-07-24T16:18:54.075Z,11.24
2018-07-24T16:21:22.332Z,10.72
2018-07-24T16:23:49.795Z,9.34
2018-07-24T16:26:18.040Z,10.80
2018-07-24T16:28:46.307Z,10.16
2018-07-24T16:31:14.569Z,9.70
2018-07-24T16:33:42.073Z,10.60
2018-07-24T16:36:10.397Z,10.62
2018-07-24T16:38:37.826Z,9.60
2018-07-24T16:41:06.031Z,10.78
2018-07-24T16:43:34.242Z,9.68
2018-07-24T16:46:02.460Z,9.88
2018-07-24T16:48:30.671Z,9.62
2018-07-24T16:50:58.878Z,9.56
2018-07-24T16:53:27.117Z,10.04
2018-07-24T16:55:55.335Z,9.80
2018-07-24T16:58:23.544Z,8.72
2018-07-24T17:00:51.759Z,9.88
2018-07-24T17:03:19.972Z,9.80
2018-07-24T17:05:48.175Z,9.02
2018-07-24T17:08:16.418Z,9.76
2018-07-24T17:10:44.599Z,8.60
2018-07-24T17:13:12.819Z,9.74
2018-07-24T17:15:40.264Z,9.16
2018-07-24T17:18:08.477Z,8.36
2018-07-24T17:20:36.679Z,8.52
2018-07-24T17:23:04.911Z,9.36
2018-07-24T17:25:33.115Z,8.66
2018-07-24T17:28:01.330Z,8.50
2018-07-24T17:30:29.541Z,9.16
2018-07-24T17:32:56.974Z,7.62
2018-07-24T17:35:25.252Z,8.84
2018-07-24T17:37:53.399Z,8.62
2018-07-24T17:40:21.615Z,9.06
2018-07-24T17:42:49.815Z,7.96
2018-07-24T17:45:18.037Z,8.96
2018-07-24T17:47:46.248Z,9.16
2018-07-24T17:50:14.451Z,7.90
2018-07-24T17:52:42.664Z,9.32
2018-07-24T17:55:10.879Z,8.24
2018-07-24T17:57:39.078Z,8.44
2018-07-24T18:00:06.528Z,8.40
2018-07-24T18:02:35.301Z,9.02
2018-07-24T18:05:03.504Z,8.56
2018-07-24T18:07:31.771Z,8.68
2018-07-24T18:09:59.952Z,8.76
2018-07-24T18:12:28.139Z,9.16
2018-07-24T18:14:56.420Z,8.90
2018-07-24T18:17:23.791Z,8.46
2018-07-24T18:19:52.032Z,9.02
2018-07-24T18:22:20.238Z,8.58
2018-07-24T18:24:48.446Z,8.66
2018-07-24T18:27:16.650Z,8.50
2018-07-24T18:29:44.873Z,9.04
2018-07-24T18:32:13.075Z,9.44
2018-07-24T18:34:40.510Z,8.84
2018-07-24T18:37:08.736Z,9.04
2018-07-24T18:39:36.954Z,9.30
2018-07-24T18:42:05.303Z,9.64
2018-07-24T18:44:33.527Z,9.58
2018-07-24T18:47:01.763Z,10.18
2018-07-24T18:49:29.972Z,9.90
2018-07-24T18:51:58.187Z,9.56
2018-07-24T18:54:26.395Z,9.82
2018-07-24T18:56:54.617Z,9.70
2018-07-24T18:59:22.838Z,9.98
2018-07-24T19:01:51.060Z,10.00
2018-07-24T19:04:19.270Z,10.68
2018-07-24T19:06:47.498Z,10.56
2018-07-24T19:09:15.716Z,10.44
2018-07-24T19:11:43.936Z,10.20
2018-07-24T19:14:12.152Z,9.86
2018-07-24T19:16:40.364Z,10.24
2018-07-24T19:19:08.590Z,10.32
2018-07-24T19:21:36.822Z,10.68
2018-07-24T19:24:05.026Z,11.22
2018-07-24T19:26:33.279Z,10.88
2018-07-24T19:29:01.519Z,10.62
2018-07-24T19:31:29.732Z,10.72
2018-07-24T19:33:57.939Z,11.38
2018-07-24T19:36:26.159Z,10.70
2018-07-24T19:38:54.403Z,11.42
2018-07-24T19:41:22.589Z,10.76
2018-07-24T19:43:50.810Z,11.40
2018-07-24T19:46:18.252Z,11.02
2018-07-24T19:48:46.455Z,11.66
2018-07-24T19:51:14.692Z,11.58
2018-07-24T19:53:42.899Z,11.16
2018-07-24T19:56:11.115Z,13.56
2018-07-24T19:58:39.336Z,12.60
2018-07-24T20:01:07.556Z,11.92
2018-07-24T20:03:35.823Z,12.62
2018-07-24T20:06:04.007Z,13.16
2018-07-24T20:08:32.220Z,12.36
2018-07-24T20:11:00.431Z,12.38
2018-07-24T20:13:27.877Z,12.78
2018-07-24T20:15:56.083Z,12.72
2018-07-24T20:18:24.294Z,13.36
2018-07-24T20:20:52.503Z,12.62
2018-07-24T20:23:20.878Z,12.60
2018-07-24T20:25:48.176Z,13.38
2018-07-24T20:28:16.386Z,13.34
2018-07-24T20:30:44.598Z,14.00
2018-07-24T20:33:12.845Z,13.56
2018-07-24T20:35:41.135Z,12.72
2018-07-24T20:38:09.296Z,13.26
2018-07-24T20:40:37.506Z,14.78
2018-07-24T20:43:05.719Z,14.20
2018-07-24T20:45:33.929Z,13.72
2018-07-24T20:48:02.153Z,13.98
2018-07-24T20:50:30.368Z,13.54
2018-07-24T20:52:58.571Z,13.34
2018-07-24T20:55:26.785Z,14.70
2018-07-24T20:57:55.003Z,13.52
2018-07-24T21:00:23.231Z,13.06
2018-07-24T21:02:51.449Z,13.72
2018-07-24T21:05:19.668Z,14.02
2018-07-24T21:07:47.886Z,14.74
2018-07-24T21:10:16.105Z,14.44
2018-07-24T21:12:44.325Z,14.90
2018-07-24T21:15:12.531Z,14.84
2018-07-24T21:17:40.760Z,15.60
2018-07-24T21:20:08.967Z,14.82
2018-07-24T21:22:37.176Z,14.74
2018-07-24T21:25:05.387Z,14.44
2018-07-24T21:27:33.611Z,15.36
2018-07-24T21:30:01.820Z,14.74
2018-07-24T21:32:30.026Z,14.88
2018-07-24T21:34:58.243Z,15.10
2018-07-24T21:37:26.455Z,14.52
2018-07-24T21:39:54.651Z,14.90
2018-07-24T21:42:22.934Z,14.42
2018-07-24T21:44:50.332Z,14.80
2018-07-24T21:47:18.552Z,15.48
2018-07-24T21:49:46.754Z,15.36
2018-07-24T21:52:14.982Z,15.26
2018-07-24T21:54:43.238Z,15.88
2018-07-24T21:57:11.407Z,16.32
2018-07-24T21:59:39.611Z,15.40
2018-07-24T22:02:07.827Z,15.86
2018-07-24T22:04:36.035Z,16.38
2018-07-24T22:07:04.255Z,16.46
2018-07-24T22:09:31.700Z,16.40
2018-07-24T22:11:59.912Z,16.54
2018-07-24T22:14:28.174Z,16.48
2018-07-24T22:16:56.386Z,16.36
2018-07-24T22:19:24.606Z,16.52
2018-07-24T22:21:52.814Z,15.48
2018-07-24T22:24:20.255Z,17.86
2018-07-24T22:26:48.470Z,15.80
2018-07-24T22:29:16.691Z,16.40
2018-07-24T22:31:44.904Z,15.90
2018-07-24T22:34:13.122Z,15.96
2018-07-24T22:36:41.333Z,15.78
2018-07-24T22:39:09.547Z,16.02
2018-07-24T22:41:37.761Z,16.24
2018-07-24T22:44:05.198Z,16.50
2018-07-24T22:46:33.402Z,16.48
2018-07-24T22:49:01.625Z,17.28
2018-07-24T22:51:29.830Z,16.48
2018-07-24T22:53:58.044Z,16.62
2018-07-24T22:56:26.256Z,16.58
2018-07-24T22:58:54.490Z,15.78
2018-07-24T23:01:22.702Z,18.46
2018-07-24T23:03:50.929Z,16.64
2018-07-24T23:06:19.139Z,16.82
2018-07-24T23:08:47.355Z,16.98
2018-07-24T23:11:15.567Z,16.18
2018-07-24T23:13:43.788Z,17.38
2018-07-24T23:16:11.231Z,16.80
2018-07-24T23:18:39.455Z,16.04
2018-07-24T23:21:07.659Z,16.82
2018-07-24T23:23:35.110Z,16.32
2018-07-24T23:26:03.319Z,17.40
2018-07-24T23:28:31.537Z,15.90
2018-07-24T23:30:59.747Z,16.78
2018-07-24T23:33:27.960Z,16.82
2018-07-24T23:35:56.171Z,18.04
2018-07-24T23:38:24.382Z,17.32
2018-07-24T23:40:52.601Z,17.10
2018-07-24T23:43:20.818Z,18.56
2018-07-24T23:45:49.028Z,17.34
2018-07-24T23:48:17.244Z,17.86
2018-07-24T23:50:45.451Z,18.42
2018-07-24T23:53:13.662Z,18.80
2018-07-24T23:55:41.871Z,16.34
2018-07-24T23:58:09.318Z,17.06
